createdAt,value
2022-10-06T00:00:06.012Z,101130.91
2022-10-06T00:03:28.232Z,101138.00
2022-10-06T00:06:30.169Z,101141.53
2022-10-06T00:09:32.636Z,101134.44
2022-10-06T00:12:42.745Z,101130.00
2022-10-06T00:15:45.008Z,101129.97
2022-10-06T00:18:47.443Z,101129.06
2022-10-06T00:21:49.723Z,101130.84
2022-10-06T00:24:51.750Z,101126.41
2022-10-06T00:27:54.827Z,101131.75
2022-10-06T00:30:56.935Z,101122.88
2022-10-06T00:33:59.127Z,101135.28
2022-10-06T00:37:01.147Z,101121.03
2022-10-06T00:40:09.176Z,101123.72
2022-10-06T00:43:39.953Z,101129.06
2022-10-06T00:46:51.019Z,101126.38
2022-10-06T00:49:55.119Z,101116.59
2022-10-06T00:52:57.854Z,101121.88
2022-10-06T00:56:00.128Z,101120.16
2022-10-06T00:59:02.366Z,101124.56
2022-10-06T01:02:21.030Z,101121.03
2022-10-06T01:05:28.618Z,101117.47
2022-10-06T01:08:32.026Z,101111.22
2022-10-06T01:11:36.220Z,101114.78
2022-10-06T01:14:39.324Z,101118.31
2022-10-06T01:17:59.178Z,101116.56
2022-10-06T01:21:07.466Z,101106.78
2022-10-06T01:24:09.991Z,101097.84
2022-10-06T01:27:13.427Z,101104.06
2022-10-06T01:30:17.842Z,101110.31
2022-10-06T01:33:21.335Z,101104.97
2022-10-06T01:36:24.377Z,101105.88
2022-10-06T01:39:26.992Z,101100.53
2022-10-06T01:42:32.229Z,101101.44
2022-10-06T01:45:34.620Z,101097.84
2022-10-06T01:48:37.130Z,101106.72
2022-10-06T01:51:39.104Z,101099.63
2022-10-06T01:54:41.347Z,101101.38
2022-10-06T01:57:43.744Z,101103.16
2022-10-06T02:00:47.860Z,101106.72
2022-10-06T02:03:50.105Z,101108.50
2022-10-06T02:06:55.385Z,101100.50
2022-10-06T02:09:57.460Z,101108.50
2022-10-06T02:12:59.827Z,101106.72
2022-10-06T02:16:02.409Z,101102.28
2022-10-06T02:19:04.700Z,101100.50
2022-10-06T02:22:06.713Z,101106.69
2022-10-06T02:25:09.439Z,101116.47
2022-10-06T02:28:12.360Z,101111.13
2022-10-06T02:31:15.006Z,101124.38
2022-10-06T02:34:17.295Z,101119.94
2022-10-06T02:37:19.664Z,101125.25
2022-10-06T02:40:22.061Z,101121.69
2022-10-06T02:43:24.601Z,101123.50
2022-10-06T02:46:27.008Z,101122.63
2022-10-06T02:49:30.018Z,101127.97
2022-10-06T02:52:34.611Z,101123.50
2022-10-06T02:55:36.982Z,101124.41
2022-10-06T02:58:42.989Z,101132.34
2022-10-06T03:01:48.820Z,101131.47
2022-10-06T03:04:53.234Z,101138.56
2022-10-06T03:07:55.798Z,101127.97
2022-10-06T03:11:02.566Z,101128.81
2022-10-06T03:14:05.585Z,101128.81
2022-10-06T03:17:11.158Z,101131.38
2022-10-06T03:20:20.214Z,101137.66
2022-10-06T03:23:22.341Z,101139.44
2022-10-06T03:26:33.769Z,101141.22
2022-10-06T03:29:35.915Z,101142.00
2022-10-06T03:32:39.420Z,101137.53
2022-10-06T03:35:43.768Z,101137.53
2022-10-06T03:38:46.510Z,101138.44
2022-10-06T03:41:48.729Z,101142.84
2022-10-06T03:44:50.949Z,101149.06
2022-10-06T03:47:55.454Z,101155.28
2022-10-06T03:50:59.602Z,101150.84
2022-10-06T03:54:03.139Z,101154.31
2022-10-06T03:57:07.464Z,101155.19
2022-10-06T04:00:12.490Z,101154.31
2022-10-06T04:03:19.541Z,101163.19
2022-10-06T04:06:22.950Z,101151.69
2022-10-06T04:09:25.281Z,101161.44
2022-10-06T04:12:27.428Z,101173.88
2022-10-06T04:15:31.242Z,101158.72
2022-10-06T04:18:33.727Z,101170.31
2022-10-06T04:21:37.217Z,101171.19
2022-10-06T04:24:41.373Z,101170.28
2022-10-06T04:27:45.187Z,101172.06
2022-10-06T04:30:57.662Z,101175.56
2022-10-06T04:34:01.341Z,101185.31
2022-10-06T04:37:04.608Z,101179.09
2022-10-06T04:40:08.332Z,101180.91
2022-10-06T04:43:11.883Z,101184.47
2022-10-06T04:46:38.000Z,101192.38
2022-10-06T04:49:37.461Z,101196.78
2022-10-06T04:52:40.394Z,101195.91
2022-10-06T04:55:42.420Z,101200.38
2022-10-06T04:58:48.178Z,101193.25
2022-10-06T05:01:51.147Z,101210.16
2022-10-06T05:04:53.620Z,101206.59
2022-10-06T05:07:57.973Z,101218.06
2022-10-06T05:11:06.280Z,101211.91
2022-10-06T05:14:08.581Z,101222.56
2022-10-06T05:17:14.114Z,101229.66
2022-10-06T05:20:16.551Z,101232.28
2022-10-06T05:23:19.069Z,101232.25
2022-10-06T05:26:24.680Z,101236.63
2022-10-06T05:29:28.772Z,101235.03
2022-10-06T05:32:35.807Z,101230.59
2022-10-06T05:35:39.108Z,101238.59
2022-10-06T05:38:42.267Z,101243.03
2022-10-06T05:41:44.707Z,101240.41
2022-10-06T05:44:48.492Z,101241.34
2022-10-06T05:47:51.965Z,101248.50
2022-10-06T05:51:02.408Z,101246.75
2022-10-06T05:54:05.703Z,101259.19
2022-10-06T05:57:08.580Z,101266.31
2022-10-06T06:00:11.604Z,101275.25
2022-10-06T06:03:14.978Z,101271.72
2022-10-06T06:06:39.232Z,101270.00
2022-10-06T06:09:45.144Z,101285.97
2022-10-06T06:12:47.851Z,101289.59
2022-10-06T06:16:13.909Z,101299.44
2022-10-06T06:19:16.688Z,101297.72
2022-10-06T06:22:20.790Z,101310.22
2022-10-06T06:25:25.136Z,101312.97
2022-10-06T06:28:31.394Z,101323.63
2022-10-06T06:31:36.422Z,101323.72
2022-10-06T06:34:38.510Z,101326.41
2022-10-06T06:37:42.690Z,101329.13
2022-10-06T06:40:44.696Z,101344.31
2022-10-06T06:43:50.075Z,101337.22
2022-10-06T06:47:04.754Z,101348.81
2022-10-06T06:50:10.516Z,101355.03
2022-10-06T06:53:16.216Z,101352.38
2022-10-06T06:56:23.899Z,101356.84
2022-10-06T06:59:26.169Z,101373.72
2022-10-06T07:02:30.882Z,101367.47
2022-10-06T07:05:33.736Z,101391.53
2022-10-06T07:08:39.391Z,101376.41
2022-10-06T07:11:41.449Z,101379.06
2022-10-06T07:15:05.742Z,101382.63
2022-10-06T07:18:36.656Z,101379.97
2022-10-06T07:21:59.356Z,101389.75
2022-10-06T07:25:08.361Z,101386.13
2022-10-06T07:28:17.244Z,101388.81
2022-10-06T07:31:19.960Z,101387.94
2022-10-06T07:34:23.465Z,101388.81
2022-10-06T07:37:26.037Z,101370.06
2022-10-06T07:40:28.740Z,101394.09
2022-10-06T07:43:31.004Z,101385.16
2022-10-06T07:46:34.763Z,101399.38
2022-10-06T07:49:56.163Z,101396.63
2022-10-06T07:53:08.620Z,101402.78
2022-10-06T07:56:15.851Z,101400.03
2022-10-06T07:59:23.077Z,101407.13
2022-10-06T08:02:30.186Z,101398.09
2022-10-06T08:05:35.279Z,101399.81
2022-10-06T08:08:37.929Z,101388.13
2022-10-06T08:11:40.636Z,101396.00
2022-10-06T08:14:42.860Z,101393.13
2022-10-06T08:17:45.432Z,101391.22
2022-10-06T08:20:47.613Z,101400.75
2022-10-06T08:23:51.107Z,101400.53
2022-10-06T08:26:53.244Z,101401.34
2022-10-06T08:29:55.985Z,101397.34
2022-10-06T08:32:58.504Z,101415.69
2022-10-06T08:36:28.311Z,101417.31
2022-10-06T08:39:32.933Z,101425.06
2022-10-06T08:43:02.378Z,101424.69
2022-10-06T08:46:04.808Z,101440.50
2022-10-06T08:49:18.115Z,101442.69
2022-10-06T08:52:34.271Z,101444.78
2022-10-06T08:55:47.836Z,101450.22
2022-10-06T08:59:04.186Z,101458.59
2022-10-06T09:02:32.438Z,101463.31
2022-10-06T09:05:35.050Z,101471.44
2022-10-06T09:08:54.106Z,101464.75
2022-10-06T09:12:06.831Z,101474.03
2022-10-06T09:15:15.009Z,101483.59
2022-10-06T09:18:20.076Z,101480.41
2022-10-06T09:21:39.302Z,101478.94
2022-10-06T09:24:49.507Z,101469.44
2022-10-06T09:27:58.619Z,101480.44
2022-10-06T09:31:04.138Z,101484.53
2022-10-06T09:34:45.651Z,101490.25
2022-10-06T09:38:08.150Z,101496.72
2022-10-06T09:41:12.083Z,101494.41
2022-10-06T09:44:25.300Z,101489.41
2022-10-06T09:47:34.758Z,101489.34
2022-10-06T09:50:36.802Z,101497.59
2022-10-06T09:53:39.704Z,101497.25
2022-10-06T09:56:43.254Z,101504.13
2022-10-06T09:59:46.989Z,101501.34
2022-10-06T10:03:05.742Z,101512.22
2022-10-06T10:06:09.136Z,101514.72
2022-10-06T10:09:21.326Z,101510.28
2022-10-06T10:12:29.917Z,101516.72
2022-10-06T10:15:54.450Z,101517.59
2022-10-06T10:18:57.182Z,101512.63
2022-10-06T10:22:00.117Z,101525.41
2022-10-06T10:25:21.459Z,101530.47
2022-10-06T10:28:42.040Z,101532.13
2022-10-06T10:32:21.660Z,101529.63
2022-10-06T10:35:30.944Z,101527.50
2022-10-06T10:38:40.997Z,101539.84
2022-10-06T10:41:47.912Z,101543.84
2022-10-06T10:44:57.730Z,101550.84
2022-10-06T10:48:13.737Z,101542.81
2022-10-06T10:51:25.110Z,101543.22
2022-10-06T10:54:53.303Z,101544.56
2022-10-06T10:57:59.510Z,101554.63
2022-10-06T11:01:26.263Z,101544.03
2022-10-06T11:04:28.709Z,101548.13
2022-10-06T11:07:55.792Z,101545.63
2022-10-06T11:11:00.683Z,101555.34
2022-10-06T11:14:08.389Z,101564.25
2022-10-06T11:17:25.088Z,101565.28
2022-10-06T11:20:50.831Z,101556.97
2022-10-06T11:24:20.472Z,101575.81
2022-10-06T11:28:02.052Z,101576.03
2022-10-06T11:31:23.193Z,101561.91
2022-10-06T11:34:25.742Z,101574.41
2022-10-06T11:37:41.008Z,101576.72
2022-10-06T11:41:09.900Z,101592.28
2022-10-06T11:44:15.854Z,101597.81
2022-10-06T11:47:34.988Z,101586.03
2022-10-06T11:50:41.851Z,101582.06
2022-10-06T11:53:44.915Z,101595.03
2022-10-06T11:56:48.377Z,101589.53
2022-10-06T11:59:55.277Z,101584.13
2022-10-06T12:03:35.848Z,101591.28
2022-10-06T12:06:46.938Z,101593.97
2022-10-06T12:09:52.299Z,101602.16
2022-10-06T12:13:31.808Z,101605.81
2022-10-06T12:20:49.624Z,101622.53
2022-10-06T12:24:24.549Z,101613.72
2022-10-06T12:27:53.684Z,101621.78
2022-10-06T12:31:14.569Z,101636.97
2022-10-06T12:35:03.353Z,101635.28
2022-10-06T12:38:26.567Z,101642.63
2022-10-06T12:42:05.977Z,101643.81
2022-10-06T12:45:16.866Z,101660.22
2022-10-06T12:48:28.261Z,101652.19
2022-10-06T12:51:42.140Z,101654.66
2022-10-06T12:54:58.935Z,101657.59
2022-10-06T12:58:01.841Z,101658.81
2022-10-06T13:01:12.262Z,101652.66
2022-10-06T13:04:41.310Z,101657.44
2022-10-06T13:08:03.205Z,101662.53
2022-10-06T13:11:28.098Z,101671.00
2022-10-06T13:14:30.104Z,101671.75
2022-10-06T13:17:32.323Z,101671.00
2022-10-06T13:20:40.117Z,101685.22
2022-10-06T13:23:43.252Z,101677.34
2022-10-06T13:26:45.846Z,101689.06
2022-10-06T13:29:48.387Z,101698.13
2022-10-06T13:32:54.466Z,101699.06
2022-10-06T13:35:58.019Z,101711.63
2022-10-06T13:39:00.610Z,101706.97
2022-10-06T13:42:08.316Z,101701.84
2022-10-06T13:45:14.461Z,101704.13
2022-10-06T13:48:20.827Z,101715.00
2022-10-06T13:51:25.750Z,101720.28
2022-10-06T13:55:01.380Z,101708.25
2022-10-06T13:58:06.813Z,101715.34
2022-10-06T14:01:12.269Z,101725.84
2022-10-06T14:04:17.121Z,101721.25
2022-10-06T14:07:19.335Z,101730.09
2022-10-06T14:13:32.897Z,101736.25
2022-10-06T14:16:34.987Z,101732.56
2022-10-06T14:19:40.699Z,101734.41
2022-10-06T14:22:42.738Z,101730.38
2022-10-06T14:25:44.964Z,101735.88
2022-10-06T14:28:53.022Z,101741.06
2022-10-06T14:31:55.293Z,101756.69
2022-10-06T14:34:57.338Z,101756.91
2022-10-06T14:37:59.703Z,101761.16
2022-10-06T14:41:02.994Z,101753.03
2022-10-06T14:44:08.829Z,101771.84
2022-10-06T14:47:11.062Z,101764.56
2022-10-06T14:50:13.538Z,101769.91
2022-10-06T14:53:17.176Z,101772.50
2022-10-06T14:56:19.780Z,101770.78
2022-10-06T14:59:21.926Z,101769.84
2022-10-06T15:02:24.173Z,101778.28
2022-10-06T15:05:26.436Z,101780.38
2022-10-06T15:08:30.955Z,101798.41
2022-10-06T15:11:33.474Z,101801.09
2022-10-06T15:14:39.745Z,101802.91
2022-10-06T15:17:42.354Z,101819.34
2022-10-06T15:20:47.460Z,101810.63
2022-10-06T15:23:55.579Z,101815.22
2022-10-06T15:27:19.186Z,101822.31
2022-10-06T15:30:23.302Z,101833.53
2022-10-06T15:33:38.606Z,101834.69
2022-10-06T15:36:43.761Z,101835.72
2022-10-06T15:39:46.866Z,101836.69
2022-10-06T15:42:50.071Z,101849.41
2022-10-06T15:45:55.451Z,101854.78
2022-10-06T15:49:01.088Z,101850.59
2022-10-06T15:52:05.060Z,101876.69
2022-10-06T15:55:10.549Z,101880.31
2022-10-06T15:58:12.942Z,101885.84
2022-10-06T16:01:34.909Z,101885.88
2022-10-06T16:04:38.820Z,101890.38
2022-10-06T16:07:40.838Z,101899.44
2022-10-06T16:10:49.672Z,101904.03
2022-10-06T16:13:52.411Z,101912.09
2022-10-06T16:20:15.246Z,101918.56
2022-10-06T16:23:17.616Z,101924.00
2022-10-06T16:26:20.464Z,101930.22
2022-10-06T16:29:22.805Z,101924.94
2022-10-06T16:32:24.903Z,101945.53
2022-10-06T16:35:27.221Z,101947.34
2022-10-06T16:38:29.231Z,101950.16
2022-10-06T16:41:31.528Z,101958.22
2022-10-06T16:44:33.879Z,101969.03
2022-10-06T16:47:36.009Z,101966.38
2022-10-06T16:50:37.978Z,101961.94
2022-10-06T16:53:45.919Z,101978.09
2022-10-06T16:56:52.095Z,101987.09
2022-10-06T16:59:54.461Z,101985.31
2022-10-06T17:02:56.577Z,101991.59
2022-10-06T17:06:06.213Z,101994.28
2022-10-06T17:09:14.251Z,101999.69
2022-10-06T17:12:16.638Z,101997.88
2022-10-06T17:15:18.951Z,101998.75
2022-10-06T17:18:21.345Z,102000.53
2022-10-06T17:21:44.422Z,102012.13
2022-10-06T17:24:46.155Z,102009.38
2022-10-06T17:27:48.511Z,102010.25
2022-10-06T17:30:59.155Z,102020.00
2022-10-06T17:34:12.188Z,102028.91
2022-10-06T17:37:14.713Z,102029.69
2022-10-06T17:40:16.792Z,102033.16
2022-10-06T17:43:20.760Z,102038.50
2022-10-06T17:46:23.164Z,102042.88
2022-10-06T17:49:27.140Z,102043.66
2022-10-06T17:52:30.503Z,102049.78
2022-10-06T17:55:36.108Z,102042.53
2022-10-06T17:58:39.973Z,102054.91
2022-10-06T18:01:44.404Z,102043.28
2022-10-06T18:04:49.934Z,102053.00
2022-10-06T18:07:52.275Z,102046.66
2022-10-06T18:11:13.019Z,102064.44
2022-10-06T18:14:17.804Z,102066.91
2022-10-06T18:17:20.603Z,102073.88
2022-10-06T18:20:23.040Z,102076.41
2022-10-06T18:23:25.943Z,102078.97
2022-10-06T18:26:28.321Z,102085.13
2022-10-06T18:29:35.448Z,102090.34
2022-10-06T18:34:46.795Z,102084.91
2022-10-06T18:36:12.212Z,102083.03
2022-10-06T18:39:14.882Z,102088.28
2022-10-06T18:42:16.907Z,102088.97
2022-10-06T18:45:39.524Z,102086.09
2022-10-06T18:49:00.199Z,102082.47
2022-10-06T18:52:02.471Z,102097.34
2022-10-06T18:55:04.975Z,102096.31
2022-10-06T18:58:07.678Z,102108.53
2022-10-06T19:01:10.802Z,102104.91
2022-10-06T19:04:15.323Z,102116.34
2022-10-06T19:07:17.315Z,102119.78
2022-10-06T19:10:19.606Z,102111.72
2022-10-06T19:13:22.512Z,102119.56
2022-10-06T19:16:25.074Z,102129.13
2022-10-06T19:19:28.141Z,102132.25
2022-10-06T19:22:31.263Z,102136.47
2022-10-06T19:25:33.277Z,102149.56
2022-10-06T19:28:36.517Z,102143.16
2022-10-06T19:31:41.886Z,102153.72
2022-10-06T19:34:44.893Z,102159.78
2022-10-06T19:37:47.295Z,102157.84
2022-10-06T19:40:49.941Z,102155.97
2022-10-06T19:43:53.147Z,102162.84
2022-10-06T19:46:55.812Z,102160.94
2022-10-06T19:50:02.055Z,102168.59
2022-10-06T19:53:06.307Z,102162.31
2022-10-06T19:56:08.553Z,102168.41
2022-10-06T19:59:18.423Z,102169.19
2022-10-06T20:02:20.523Z,102179.69
2022-10-06T20:05:23.027Z,102178.66
2022-10-06T20:08:25.103Z,102184.72
2022-10-06T20:11:27.683Z,102181.78
2022-10-06T20:14:29.893Z,102187.88
2022-10-06T20:17:32.146Z,102193.06
2022-10-06T20:20:34.231Z,102191.06
2022-10-06T20:23:36.572Z,102193.47
2022-10-06T20:26:41.108Z,102193.31
2022-10-06T20:29:43.615Z,102195.78
2022-10-06T20:32:45.727Z,102207.06
2022-10-06T20:35:47.947Z,102202.56
2022-10-06T20:39:08.602Z,102208.66
2022-10-06T20:42:15.222Z,102213.84
2022-10-06T20:45:17.626Z,102216.38
2022-10-06T20:48:20.181Z,102218.03
2022-10-06T20:51:27.536Z,102210.75
2022-10-06T20:54:34.754Z,102212.22
2022-10-06T20:57:37.172Z,102213.78
2022-10-06T21:00:39.510Z,102212.81
2022-10-06T21:03:54.678Z,102221.31
2022-10-06T21:06:57.277Z,102217.63
2022-10-06T21:09:59.361Z,102221.94
2022-10-06T21:13:01.668Z,102220.03
2022-10-06T21:16:04.554Z,102215.44
2022-10-06T21:19:09.181Z,102213.50
2022-10-06T21:22:11.342Z,102209.78
2022-10-06T21:25:13.978Z,102227.44
2022-10-06T21:28:16.139Z,102218.38
2022-10-06T21:31:21.062Z,102219.16
2022-10-06T21:34:23.076Z,102230.50
2022-10-06T21:37:26.590Z,102233.91
2022-10-06T21:40:28.622Z,102236.34
2022-10-06T21:43:30.862Z,102226.56
2022-10-06T21:46:34.341Z,102230.06
2022-10-06T21:49:36.654Z,102233.53
2022-10-06T21:52:38.661Z,102228.06
2022-10-06T21:55:40.923Z,102243.81
2022-10-06T21:58:51.253Z,102247.94
2022-10-06T22:01:53.707Z,102242.66
2022-10-06T22:04:55.783Z,102241.38
2022-10-06T22:07:58.058Z,102247.44
2022-10-06T22:11:15.019Z,102254.41
2022-10-06T22:14:18.841Z,102249.97
2022-10-06T22:17:20.949Z,102244.56
2022-10-06T22:20:23.380Z,102239.03
2022-10-06T22:23:25.384Z,102236.28
2022-10-06T22:26:29.195Z,102250.25
2022-10-06T22:29:31.272Z,102242.94
2022-10-06T22:32:33.527Z,102241.00
2022-10-06T22:35:35.530Z,102240.91
2022-10-06T22:38:38.302Z,102250.56
2022-10-06T22:41:40.611Z,102250.38
2022-10-06T22:44:42.876Z,102250.28
2022-10-06T22:47:45.344Z,102244.75
2022-10-06T22:50:49.190Z,102238.41
2022-10-06T22:53:58.180Z,102239.34
2022-10-06T22:57:00.669Z,102240.94
2022-10-06T23:00:03.073Z,102241.69
2022-10-06T23:03:07.289Z,102246.88
2022-10-06T23:06:12.344Z,102248.34
2022-10-06T23:09:14.689Z,102249.91
2022-10-06T23:12:16.805Z,102250.75
2022-10-06T23:15:19.107Z,102254.75
2022-10-06T23:18:21.140Z,102261.78
2022-10-06T23:21:27.417Z,102254.50
2022-10-06T23:24:29.694Z,102256.97
2022-10-06T23:27:32.022Z,102260.34
2022-10-06T23:30:35.956Z,102257.53
2022-10-06T23:33:38.880Z,102265.44
2022-10-06T23:36:40.894Z,102253.66
2022-10-06T23:39:43.234Z,102266.50
2022-10-06T23:42:45.289Z,102264.75
2022-10-06T23:45:47.908Z,102270.19
2022-10-06T23:48:49.998Z,102269.41
2022-10-06T23:51:52.573Z,102269.34
2022-10-06T23:54:54.561Z,102270.00
2022-10-06T23:57:56.842Z,102273.53
